Time;durP1;ratioP1;P1;durP2;ratioP2;P2;SDS_P1;SDS_P2;PMS_P1;PMS_P2;Temp;Humidity;BMP_temperature;BMP_pressure;BME280_temperature;BME280_humidity;BME280_pressure;Samples;Min_cycle;Max_cycle;Signal;HPM_P1;HPM_P2
2022/03/06 00:00:37;;;;;;;11.85;8.73;;;;;;;;;;5093354;28;20429;-71
2022/03/06 00:03:04;;;;;;;10.50;8.40;;;;;;;;;;5089939;28;20097;-71
2022/03/06 00:05:30;;;;;;;10.05;7.68;;;;;;;;;;5099327;28;20354;-71
2022/03/06 00:07:56;;;;;;;10.85;7.47;;;;;;;;;;5079439;28;20020;-71
2022/03/06 00:10:22;;;;;;;8.70;6.93;;;;;;;;;;5096213;28;20015;-71
2022/03/06 00:12:47;;;;;;;8.85;6.88;;;;;;;;;;5101715;28;20046;-71
2022/03/06 00:15:12;;;;;;;7.32;6.10;;;;;;;;;;5098117;28;20110;-71
2022/03/06 00:17:38;;;;;;;7.40;6.47;;;;;;;;;;5097250;28;20451;-71
2022/03/06 00:20:08;;;;;;;7.03;5.70;;;;;;;;;;5095079;28;20034;-71
2022/03/06 00:22:33;;;;;;;;;;;;;;;;;;5100466;28;20059;-71
2022/03/06 00:24:59;;;;;;;7.90;5.73;;;;;;;;;;5100370;28;20087;-70
2022/03/06 00:27:24;;;;;;;7.38;6.53;;;;;;;;;;5099230;28;20088;-71
2022/03/06 00:29:50;;;;;;;7.05;5.53;;;;;;;;;;5100266;28;20023;-72
2022/03/06 00:32:15;;;;;;;6.97;4.95;;;;;;;;;;5100690;28;20081;-71
2022/03/06 00:34:42;;;;;;;6.80;6.00;;;;;;;;;;5100181;28;20106;-71
2022/03/06 00:37:07;;;;;;;7.25;6.30;;;;;;;;;;5084886;28;20400;-71
2022/03/06 00:39:34;;;;;;;8.55;6.43;;;;;;;;;;5097594;28;20069;-71
2022/03/06 00:42:00;;;;;;;8.23;6.65;;;;;;;;;;5099667;28;20070;-71
2022/03/06 00:44:25;;;;;;;10.25;7.90;;;;;;;;;;5089798;28;20031;-72
2022/03/06 00:46:51;;;;;;;7.88;6.53;;;;;;;;;;5094038;28;20027;-71
2022/03/06 00:49:16;;;;;;;9.75;7.68;;;;;;;;;;5098815;28;20062;-71
2022/03/06 00:51:41;;;;;;;11.02;8.90;;;;;;;;;;5097168;28;20117;-71
2022/03/06 00:54:07;;;;;;;9.93;8.30;;;;;;;;;;5098098;28;20439;-71
2022/03/06 00:56:32;;;;;;;12.75;10.27;;;;;;;;;;5096327;28;20027;-72
2022/03/06 00:58:57;;;;;;;12.63;10.20;;;;;;;;;;5098800;28;20491;-71
2022/03/06 01:01:23;;;;;;;11.82;9.10;;;;;;;;;;5095711;28;20052;-71
2022/03/06 01:03:48;;;;;;;12.02;8.57;;;;;;;;;;5098295;28;20020;-71
2022/03/06 01:06:13;;;;;;;11.75;8.95;;;;;;;;;;5100090;28;20505;-71
2022/03/06 01:08:39;;;;;;;10.57;8.95;;;;;;;;;;5098502;28;20038;-71
2022/03/06 01:11:04;;;;;;;10.05;8.05;;;;;;;;;;5093812;28;20031;-71
2022/03/06 01:13:29;;;;;;;13.32;10.13;;;;;;;;;;5075875;28;21159;-71
2022/03/06 01:15:55;;;;;;;11.88;10.43;;;;;;;;;;5080105;28;20354;-71
2022/03/06 01:18:20;;;;;;;14.05;11.05;;;;;;;;;;5089583;28;20038;-71
2022/03/06 01:20:46;;;;;;;12.07;9.40;;;;;;;;;;5093517;28;20347;-70
2022/03/06 01:23:11;;;;;;;12.93;10.13;;;;;;;;;;5096034;28;20994;-71
2022/03/06 01:25:36;;;;;;;15.38;11.20;;;;;;;;;;5097589;28;20074;-70
2022/03/06 01:28:02;;;;;;;13.35;10.70;;;;;;;;;;5095209;28;20111;-74
2022/03/06 01:30:27;;;;;;;15.65;11.43;;;;;;;;;;5096573;28;20035;-71
2022/03/06 01:32:53;;;;;;;16.50;12.00;;;;;;;;;;5099443;28;20032;-71
2022/03/06 01:35:19;;;;;;;16.77;13.13;;;;;;;;;;5097816;28;20027;-71
2022/03/06 01:37:45;;;;;;;15.73;12.10;;;;;;;;;;5097958;28;20025;-71
2022/03/06 01:40:11;;;;;;;16.55;12.05;;;;;;;;;;5098273;28;20362;-71
2022/03/06 01:42:40;;;;;;;17.30;12.98;;;;;;;;;;5095900;28;20039;-71
2022/03/06 01:45:06;;;;;;;20.87;14.20;;;;;;;;;;5090855;28;20027;-70
2022/03/06 01:47:34;;;;;;;14.75;11.07;;;;;;;;;;5091671;28;20263;-70
2022/03/06 01:50:00;;;;;;;18.52;12.98;;;;;;;;;;5094493;28;20024;-71
2022/03/06 01:52:25;;;;;;;16.23;11.77;;;;;;;;;;5080032;28;20119;-70
2022/03/06 01:54:50;;;;;;;17.95;13.60;;;;;;;;;;5095593;28;20626;-70
2022/03/06 01:57:16;;;;;;;16.80;12.15;;;;;;;;;;5096617;28;20431;-71
2022/03/06 01:59:41;;;;;;;17.85;12.60;;;;;;;;;;5093599;28;20035;-71
2022/03/06 02:02:06;;;;;;;16.38;12.27;;;;;;;;;;5097812;28;20016;-71
2022/03/06 02:04:32;;;;;;;16.48;12.27;;;;;;;;;;5087341;28;20152;-71
2022/03/06 02:06:59;;;;;;;14.07;10.50;;;;;;;;;;5087262;28;20043;-71
2022/03/06 02:09:24;;;;;;;15.20;11.02;;;;;;;;;;5097628;28;20435;-71
2022/03/06 02:12:21;;;;;;;16.73;11.23;;;;;;;;;;5077306;28;20028;-71
2022/03/06 02:14:35;;;;;;;15.95;11.15;;;;;;;;;;5097082;28;20047;-71
2022/03/06 02:17:01;;;;;;;14.48;10.65;;;;;;;;;;5094564;28;20432;-71
2022/03/06 02:19:27;;;;;;;14.85;10.77;;;;;;;;;;5089454;28;20047;-71
2022/03/06 02:21:53;;;;;;;10.45;8.02;;;;;;;;;;5087505;28;20401;-72
2022/03/06 02:24:18;;;;;;;13.68;10.43;;;;;;;;;;5087027;28;20027;-71
2022/03/06 02:26:43;;;;;;;12.07;9.45;;;;;;;;;;5086965;28;20110;-71
2022/03/06 02:29:09;;;;;;;10.48;7.47;;;;;;;;;;5075671;28;20028;-71
2022/03/06 02:31:35;;;;;;;13.75;9.93;;;;;;;;;;5086442;28;20024;-71
2022/03/06 02:34:01;;;;;;;12.05;8.88;;;;;;;;;;5087075;28;20115;-71
2022/03/06 02:36:26;;;;;;;11.05;8.27;;;;;;;;;;5096944;28;20415;-72
2022/03/06 02:38:51;;;;;;;12.48;8.43;;;;;;;;;;5095278;28;20031;-71
2022/03/06 02:41:17;;;;;;;12.20;9.35;;;;;;;;;;5096812;28;20111;-71
2022/03/06 02:43:42;;;;;;;13.93;10.23;;;;;;;;;;5095540;28;20054;-71
2022/03/06 02:46:07;;;;;;;11.00;8.15;;;;;;;;;;5094214;28;20344;-71
2022/03/06 02:48:33;;;;;;;10.23;7.78;;;;;;;;;;5095345;28;20031;-71
2022/03/06 02:50:58;;;;;;;10.98;8.63;;;;;;;;;;5097530;28;20415;-71
2022/03/06 02:53:24;;;;;;;10.23;7.55;;;;;;;;;;5087017;28;20047;-71
2022/03/06 02:55:49;;;;;;;12.88;9.45;;;;;;;;;;5096374;28;20350;-71
2022/03/06 02:58:14;;;;;;;11.27;8.38;;;;;;;;;;5098308;28;20089;-71
2022/03/06 03:00:40;;;;;;;13.07;9.60;;;;;;;;;;5097333;28;20118;-70
2022/03/06 03:03:05;;;;;;;13.73;9.93;;;;;;;;;;5096194;28;20019;-72
2022/03/06 03:05:31;;;;;;;13.13;8.88;;;;;;;;;;5095531;28;20031;-71
2022/03/06 03:07:56;;;;;;;10.63;8.07;;;;;;;;;;5095070;28;20472;-72
2022/03/06 03:10:22;;;;;;;12.57;8.70;;;;;;;;;;5096351;28;20024;-71
2022/03/06 03:12:48;;;;;;;12.80;9.10;;;;;;;;;;5094888;28;20075;-71
2022/03/06 03:15:14;;;;;;;10.95;7.82;;;;;;;;;;5097317;28;20035;-71
2022/03/06 03:17:39;;;;;;;10.20;7.38;;;;;;;;;;5096558;28;20060;-71
2022/03/06 03:20:06;;;;;;;8.90;7.22;;;;;;;;;;5095475;28;20124;-71
2022/03/06 03:22:31;;;;;;;9.88;7.75;;;;;;;;;;5097169;28;20035;-70
2022/03/06 03:24:56;;;;;;;12.13;8.38;;;;;;;;;;5097054;28;20023;-70
2022/03/06 03:27:22;;;;;;;10.63;8.52;;;;;;;;;;5097538;28;20373;-71
2022/03/06 03:29:47;;;;;;;10.75;7.75;;;;;;;;;;5098896;28;20027;-71
2022/03/06 03:32:13;;;;;;;9.20;7.22;;;;;;;;;;5093923;28;20086;-70
2022/03/06 03:34:38;;;;;;;14.73;9.23;;;;;;;;;;5097879;28;20361;-71
2022/03/06 03:37:03;;;;;;;11.23;9.00;;;;;;;;;;5095988;28;20058;-71
2022/03/06 03:39:29;;;;;;;12.65;9.43;;;;;;;;;;5096054;28;20035;-71
2022/03/06 03:41:54;;;;;;;9.98;7.18;;;;;;;;;;5096121;28;20073;-71
2022/03/06 03:44:20;;;;;;;11.35;8.13;;;;;;;;;;5096203;28;20485;-71
2022/03/06 03:46:45;;;;;;;12.50;9.20;;;;;;;;;;5093203;28;20031;-71
2022/03/06 03:49:11;;;;;;;12.18;8.27;;;;;;;;;;5096746;28;20027;-70
2022/03/06 03:51:37;;;;;;;11.05;7.72;;;;;;;;;;5099560;28;20312;-71
2022/03/06 03:54:02;;;;;;;10.48;8.25;;;;;;;;;;5100012;28;20028;-70
2022/03/06 03:56:27;;;;;;;11.88;9.25;;;;;;;;;;5100464;28;20028;-71
2022/03/06 03:58:53;;;;;;;14.52;9.73;;;;;;;;;;5085299;28;20063;-71
2022/03/06 04:01:18;;;;;;;10.10;8.13;;;;;;;;;;5096872;28;20019;-72
2022/03/06 04:03:44;;;;;;;11.88;8.55;;;;;;;;;;5100692;28;20022;-71
2022/03/06 04:06:09;;;;;;;9.63;7.00;;;;;;;;;;5095895;28;20470;-71
2022/03/06 04:08:34;;;;;;;11.48;8.35;;;;;;;;;;5094657;28;20027;-71
2022/03/06 04:11:00;;;;;;;11.10;8.00;;;;;;;;;;5097458;28;20026;-70
2022/03/06 04:13:26;;;;;;;9.43;7.25;;;;;;;;;;5101659;28;20089;-71
2022/03/06 04:15:51;;;;;;;10.52;7.63;;;;;;;;;;5098705;28;20023;-70
2022/03/06 04:18:17;;;;;;;10.75;7.70;;;;;;;;;;5101229;28;20343;-70
2022/03/06 04:20:42;;;;;;;11.82;7.35;;;;;;;;;;5096881;28;20016;-72
2022/03/06 04:23:08;;;;;;;10.45;7.72;;;;;;;;;;5098033;28;20547;-71
2022/03/06 04:25:34;;;;;;;12.30;9.30;;;;;;;;;;5091877;28;20102;-70
2022/03/06 04:27:59;;;;;;;11.50;8.05;;;;;;;;;;5098094;28;20032;-71
2022/03/06 04:30:25;;;;;;;10.35;7.82;;;;;;;;;;5100863;28;20039;-71
2022/03/06 04:32:51;;;;;;;13.98;10.05;;;;;;;;;;5098108;28;20031;-70
2022/03/06 04:35:16;;;;;;;11.27;8.27;;;;;;;;;;5098546;28;20023;-71
2022/03/06 04:37:41;;;;;;;14.07;10.10;;;;;;;;;;5099618;28;20311;-70
2022/03/06 04:40:07;;;;;;;14.50;9.82;;;;;;;;;;5097375;28;20041;-71
2022/03/06 04:42:33;;;;;;;13.25;9.82;;;;;;;;;;5095837;28;20072;-71
2022/03/06 04:44:58;;;;;;;15.10;10.32;;;;;;;;;;5096066;28;20439;-71
2022/03/06 04:47:23;;;;;;;16.45;11.32;;;;;;;;;;5097200;28;20063;-70
2022/03/06 04:49:49;;;;;;;14.60;10.63;;;;;;;;;;5095840;28;20032;-70
2022/03/06 04:52:14;;;;;;;17.92;12.60;;;;;;;;;;5099839;28;20038;-69
2022/03/06 04:54:39;;;;;;;16.92;12.00;;;;;;;;;;5097398;28;20089;-70
2022/03/06 04:57:05;;;;;;;15.20;10.30;;;;;;;;;;5099536;28;20353;-70
2022/03/06 04:59:30;;;;;;;16.13;11.85;;;;;;;;;;5094275;28;20036;-71
2022/03/06 05:01:55;;;;;;;15.48;12.15;;;;;;;;;;5096601;28;20099;-70
2022/03/06 05:04:21;;;;;;;13.85;10.25;;;;;;;;;;5099679;28;20055;-71
2022/03/06 05:06:47;;;;;;;14.45;10.40;;;;;;;;;;5097557;28;21190;-70
2022/03/06 05:09:12;;;;;;;14.82;10.73;;;;;;;;;;5092032;28;20093;-70
2022/03/06 05:11:37;;;;;;;16.15;10.88;;;;;;;;;;5088125;28;20134;-71
2022/03/06 05:14:03;;;;;;;15.80;11.23;;;;;;;;;;5090434;28;20039;-71
2022/03/06 05:16:28;;;;;;;13.80;10.05;;;;;;;;;;5095676;28;20361;-70
2022/03/06 05:18:54;;;;;;;13.57;11.38;;;;;;;;;;5098811;28;20069;-70
2022/03/06 05:21:20;;;;;;;11.80;8.75;;;;;;;;;;5097004;28;20035;-70
2022/03/06 05:23:45;;;;;;;14.88;9.82;;;;;;;;;;5097400;28;20038;-70
2022/03/06 05:26:10;;;;;;;17.40;11.43;;;;;;;;;;5097644;28;20023;-71
2022/03/06 05:28:36;;;;;;;13.00;9.30;;;;;;;;;;5099169;28;20019;-71
2022/03/06 05:31:01;;;;;;;12.10;9.43;;;;;;;;;;5094458;28;20043;-71
2022/03/06 05:33:27;;;;;;;12.23;8.73;;;;;;;;;;5090714;28;20035;-71
2022/03/06 05:35:52;;;;;;;10.98;9.48;;;;;;;;;;5096865;28;20031;-71
2022/03/06 05:38:17;;;;;;;11.25;7.85;;;;;;;;;;5087660;28;20106;-70
2022/03/06 05:40:43;;;;;;;12.63;9.77;;;;;;;;;;5091523;28;20031;-71
2022/03/06 05:43:08;;;;;;;12.75;9.18;;;;;;;;;;5097914;28;20414;-71
2022/03/06 05:45:34;;;;;;;10.15;7.75;;;;;;;;;;5096595;28;20459;-70
2022/03/06 05:47:59;;;;;;;11.30;8.80;;;;;;;;;;5094890;28;20898;-71
2022/03/06 05:50:25;;;;;;;10.98;7.85;;;;;;;;;;5098183;28;20434;-71
2022/03/06 05:52:50;;;;;;;10.55;7.93;;;;;;;;;;5096052;28;20494;-71
2022/03/06 05:55:16;;;;;;;9.98;7.50;;;;;;;;;;5098414;28;20032;-70
2022/03/06 05:57:41;;;;;;;9.02;6.80;;;;;;;;;;5095953;28;20027;-70
2022/03/06 06:00:08;;;;;;;11.23;8.50;;;;;;;;;;5096921;28;20077;-71
2022/03/06 06:02:37;;;;;;;9.82;7.32;;;;;;;;;;5098457;28;20084;-70
2022/03/06 06:05:03;;;;;;;10.77;8.15;;;;;;;;;;5097236;28;20051;-70
2022/03/06 06:07:29;;;;;;;11.45;8.18;;;;;;;;;;5089273;28;20472;-70
2022/03/06 06:09:54;;;;;;;8.60;6.28;;;;;;;;;;5086668;28;20059;-71
2022/03/06 06:12:19;;;;;;;9.40;6.97;;;;;;;;;;5085450;28;20040;-70
2022/03/06 06:14:45;;;;;;;9.23;6.80;;;;;;;;;;5086520;28;20051;-71
2022/03/06 06:17:10;;;;;;;9.90;7.28;;;;;;;;;;5087965;28;20909;-72
2022/03/06 06:19:36;;;;;;;10.38;7.68;;;;;;;;;;5086253;28;20028;-72
2022/03/06 06:22:01;;;;;;;8.68;6.85;;;;;;;;;;5086864;28;20102;-71
2022/03/06 06:24:26;;;;;;;8.27;6.47;;;;;;;;;;5086984;28;20443;-71
2022/03/06 06:26:54;;;;;;;8.43;6.78;;;;;;;;;;5089896;28;20031;-72
2022/03/06 06:29:19;;;;;;;10.60;6.57;;;;;;;;;;5090572;28;20059;-70
2022/03/06 06:31:45;;;;;;;9.18;6.30;;;;;;;;;;5086420;28;20055;-72
2022/03/06 06:34:10;;;;;;;8.52;6.18;;;;;;;;;;5098353;28;20049;-72
2022/03/06 06:36:36;;;;;;;10.07;6.93;;;;;;;;;;5086489;28;20472;-71
2022/03/06 06:39:01;;;;;;;9.10;6.93;;;;;;;;;;5085868;28;20059;-72
2022/03/06 06:41:27;;;;;;;12.18;8.20;;;;;;;;;;5085955;28;20049;-71
2022/03/06 06:43:52;;;;;;;9.32;6.43;;;;;;;;;;5095115;28;20427;-72
2022/03/06 06:46:17;;;;;;;7.40;5.80;;;;;;;;;;5082187;28;20051;-71
2022/03/06 06:48:43;;;;;;;24.38;13.90;;;;;;;;;;5085769;28;21618;-69
2022/03/06 06:51:09;;;;;;;20.58;10.65;;;;;;;;;;5091596;28;20034;-72
2022/03/06 06:53:35;;;;;;;27.40;12.32;;;;;;;;;;5086965;28;20041;-71
2022/03/06 06:56:00;;;;;;;63.15;22.30;;;;;;;;;;5085949;28;20372;-71
2022/03/06 06:58:26;;;;;;;189.57;56.35;;;;;;;;;;5087055;28;20023;-69
2022/03/06 07:00:51;;;;;;;127.97;43.90;;;;;;;;;;5087089;28;20028;-71
2022/03/06 07:03:16;;;;;;;127.35;49.83;;;;;;;;;;5086637;28;20019;-75
2022/03/06 07:05:44;;;;;;;80.15;35.38;;;;;;;;;;5081896;28;20038;-68
2022/03/06 07:08:10;;;;;;;74.25;28.98;;;;;;;;;;5080147;28;20035;-70
2022/03/06 07:10:35;;;;;;;64.22;26.48;;;;;;;;;;5097781;28;20028;-68
2022/03/06 07:13:00;;;;;;;28.60;14.00;;;;;;;;;;5087778;28;20089;-68
2022/03/06 07:15:28;;;;;;;56.38;25.90;;;;;;;;;;5086638;28;20032;-70
2022/03/06 07:17:57;;;;;;;30.30;14.73;;;;;;;;;;5094442;28;20028;-71
2022/03/06 07:20:23;;;;;;;101.50;46.72;;;;;;;;;;5096159;28;20027;-71
2022/03/06 07:22:48;;;;;;;65.13;31.20;;;;;;;;;;5090577;28;20040;-71
2022/03/06 07:25:14;;;;;;;107.97;42.47;;;;;;;;;;5088998;28;20031;-71
2022/03/06 07:27:39;;;;;;;40.75;19.30;;;;;;;;;;5101452;28;20452;-71
2022/03/06 07:30:05;;;;;;;31.90;18.85;;;;;;;;;;5103476;28;20020;-72
2022/03/06 07:32:30;;;;;;;32.20;14.35;;;;;;;;;;5090270;28;20019;-72
2022/03/06 07:34:56;;;;;;;20.65;11.50;;;;;;;;;;5090370;28;20059;-71
2022/03/06 07:37:21;;;;;;;41.47;20.02;;;;;;;;;;5090220;28;20347;-71
2022/03/06 07:39:47;;;;;;;35.30;20.33;;;;;;;;;;5095234;28;20026;-71
2022/03/06 07:42:12;;;;;;;67.65;31.17;;;;;;;;;;5087810;28;20019;-72
2022/03/06 07:44:38;;;;;;;42.17;19.38;;;;;;;;;;5087204;28;20028;-71
2022/03/06 07:47:03;;;;;;;139.60;54.58;;;;;;;;;;5084932;28;20093;-70
2022/03/06 07:49:28;;;;;;;34.95;18.58;;;;;;;;;;5084598;28;20020;-70
2022/03/06 07:51:54;;;;;;;56.47;23.75;;;;;;;;;;5086083;28;20358;-71
2022/03/06 07:54:19;;;;;;;55.53;26.77;;;;;;;;;;5083152;28;20032;-67
2022/03/06 07:56:48;;;;;;;20.95;11.90;;;;;;;;;;5095841;28;20024;-69
2022/03/06 07:59:14;;;;;;;46.53;21.58;;;;;;;;;;5093687;28;20049;-73
2022/03/06 08:01:39;;;;;;;32.85;17.02;;;;;;;;;;5089799;28;20612;-68
2022/03/06 08:04:04;;;;;;;46.83;22.02;;;;;;;;;;5091578;28;20024;-71
2022/03/06 08:06:30;;;;;;;21.60;12.77;;;;;;;;;;5093524;28;20031;-72
2022/03/06 08:08:55;;;;;;;64.75;30.15;;;;;;;;;;5090330;28;20106;-71
2022/03/06 08:11:21;;;;;;;33.45;17.88;;;;;;;;;;5093580;28;20096;-67
2022/03/06 08:13:46;;;;;;;170.32;57.63;;;;;;;;;;5088155;28;20036;-71
2022/03/06 08:16:11;;;;;;;26.33;13.50;;;;;;;;;;5088833;28;20066;-71
2022/03/06 08:18:37;;;;;;;18.58;11.43;;;;;;;;;;5071935;28;20396;-70
2022/03/06 08:21:02;;;;;;;100.85;45.88;;;;;;;;;;5094416;28;20049;-69
2022/03/06 08:23:28;;;;;;;27.50;15.27;;;;;;;;;;5097199;28;20027;-69
2022/03/06 08:25:53;;;;;;;55.00;23.63;;;;;;;;;;5098667;28;20106;-70
2022/03/06 08:28:19;;;;;;;118.03;51.92;;;;;;;;;;5097638;28;20028;-69
2022/03/06 08:30:44;;;;;;;24.60;13.80;;;;;;;;;;5099584;28;20038;-69
2022/03/06 08:33:09;;;;;;;21.38;13.95;;;;;;;;;;5094472;28;20035;-69
2022/03/06 08:35:35;;;;;;;21.45;12.98;;;;;;;;;;5083607;28;20503;-71
2022/03/06 08:38:00;;;;;;;23.67;14.15;;;;;;;;;;5085203;28;20051;-69
2022/03/06 08:40:26;;;;;;;22.35;12.40;;;;;;;;;;5083542;28;20100;-70
2022/03/06 08:42:51;;;;;;;26.80;16.75;;;;;;;;;;5086844;28;20023;-72
2022/03/06 08:45:17;;;;;;;16.75;11.85;;;;;;;;;;5086943;28;20396;-68
2022/03/06 08:47:42;;;;;;;19.67;13.50;;;;;;;;;;5094775;28;20430;-71
2022/03/06 08:50:08;;;;;;;17.33;12.88;;;;;;;;;;5093451;28;20104;-71
2022/03/06 08:52:33;;;;;;;15.88;12.10;;;;;;;;;;5089303;28;20461;-70
2022/03/06 08:54:58;;;;;;;25.92;16.38;;;;;;;;;;5086670;28;20059;-69
2022/03/06 08:57:24;;;;;;;52.10;27.98;;;;;;;;;;5088741;28;20026;-70
2022/03/06 08:59:50;;;;;;;50.78;24.65;;;;;;;;;;5086963;28;20473;-70
2022/03/06 09:02:15;;;;;;;27.73;14.85;;;;;;;;;;5086679;28;20462;-70
2022/03/06 09:04:40;;;;;;;20.83;11.88;;;;;;;;;;5088960;28;20020;-71
2022/03/06 09:07:06;;;;;;;14.68;9.65;;;;;;;;;;5087580;28;20039;-71
2022/03/06 09:09:31;;;;;;;35.47;18.38;;;;;;;;;;5085364;28;20050;-70
2022/03/06 09:11:56;;;;;;;17.92;10.27;;;;;;;;;;5085644;28;20043;-73
2022/03/06 09:14:22;;;;;;;18.65;10.68;;;;;;;;;;5089999;28;20423;-72
2022/03/06 09:16:47;;;;;;;18.50;9.77;;;;;;;;;;5088782;28;20038;-67
2022/03/06 09:19:13;;;;;;;26.95;13.73;;;;;;;;;;5088490;27;20031;-69
2022/03/06 09:21:39;;;;;;;19.48;10.95;;;;;;;;;;5086181;28;20438;-65
2022/03/06 09:24:04;;;;;;;21.08;11.80;;;;;;;;;;5086294;28;20037;-70
2022/03/06 09:26:30;;;;;;;18.88;10.05;;;;;;;;;;5088019;28;20039;-70
2022/03/06 09:28:55;;;;;;;22.17;12.73;;;;;;;;;;5087780;28;21129;-66
2022/03/06 09:31:22;;;;;;;34.47;17.65;;;;;;;;;;5085903;28;20485;-66
2022/03/06 09:33:47;;;;;;;19.02;10.50;;;;;;;;;;5083742;28;20030;-79
2022/03/06 09:36:12;;;;;;;29.25;13.38;;;;;;;;;;5082083;28;20035;-74
2022/03/06 09:38:38;;;;;;;16.20;10.38;;;;;;;;;;5086156;28;20099;-76
2022/03/06 09:41:04;;;;;;;20.58;10.93;;;;;;;;;;5084497;28;20015;-71
2022/03/06 09:43:30;;;;;;;27.67;13.63;;;;;;;;;;5084751;28;20433;-68
2022/03/06 09:46:01;;;;;;;28.20;13.85;;;;;;;;;;5084530;28;20036;-69
2022/03/06 09:48:29;;;;;;;101.55;36.45;;;;;;;;;;5087044;27;21118;-65
2022/03/06 09:50:55;;;;;;;18.83;9.45;;;;;;;;;;5088786;28;20110;-67
2022/03/06 09:53:20;;;;;;;39.65;18.73;;;;;;;;;;5087091;27;20127;-68
2022/03/06 09:55:46;;;;;;;30.38;14.35;;;;;;;;;;5082787;28;20016;-69
2022/03/06 09:58:11;;;;;;;17.27;9.38;;;;;;;;;;5083652;28;20039;-69
2022/03/06 10:00:36;;;;;;;9.23;6.30;;;;;;;;;;5084591;27;20031;-68
2022/03/06 10:03:03;;;;;;;22.42;9.43;;;;;;;;;;5086855;28;20024;-69
2022/03/06 10:05:33;;;;;;;37.38;18.10;;;;;;;;;;5087175;28;20062;-68
2022/03/06 10:08:13;;;;;;;25.55;12.20;;;;;;;;;;5086025;28;20030;-68
2022/03/06 10:10:39;;;;;;;12.07;7.80;;;;;;;;;;5091326;28;20446;-74
2022/03/06 10:13:07;;;;;;;19.33;9.90;;;;;;;;;;5086348;28;20047;-68
2022/03/06 10:15:53;;;;;;;16.23;9.18;;;;;;;;;;5068639;28;20352;-71
2022/03/06 10:18:18;;;;;;;18.63;11.07;;;;;;;;;;5089249;28;20061;-69
2022/03/06 10:20:43;;;;;;;20.48;11.98;;;;;;;;;;5095088;28;20024;-73
2022/03/06 10:23:22;;;;;;;27.23;16.20;;;;;;;;;;5091652;28;20011;-70
2022/03/06 10:25:58;;;;;;;24.43;12.70;;;;;;;;;;5083881;28;20011;-71
2022/03/06 10:28:25;;;;;;;33.10;18.60;;;;;;;;;;5085904;28;20743;-72
2022/03/06 10:30:50;;;;;;;31.50;17.77;;;;;;;;;;5071637;28;20351;-69
2022/03/06 10:33:21;;;;;;;33.17;17.65;;;;;;;;;;5095724;28;20035;-67
2022/03/06 10:35:48;;;;;;;35.92;18.38;;;;;;;;;;5090133;28;20503;-70
2022/03/06 10:38:19;;;;;;;28.75;15.25;;;;;;;;;;5086437;28;20035;-70
2022/03/06 10:40:44;;;;;;;80.25;35.65;;;;;;;;;;5069858;28;20023;-70
2022/03/06 10:43:17;;;;;;;57.35;21.40;;;;;;;;;;5086706;28;20027;-70
2022/03/06 10:45:43;;;;;;;29.10;16.52;;;;;;;;;;5087174;28;20080;-70
2022/03/06 10:48:09;;;;;;;23.70;12.95;;;;;;;;;;5085322;28;20343;-69
2022/03/06 10:50:34;;;;;;;49.53;25.25;;;;;;;;;;5083810;28;20415;-70
2022/03/06 10:53:00;;;;;;;25.52;15.18;;;;;;;;;;5083080;28;20028;-70
2022/03/06 10:55:34;;;;;;;36.70;20.58;;;;;;;;;;5080927;28;21057;-70
2022/03/06 10:58:01;;;;;;;22.95;13.18;;;;;;;;;;5084083;28;20043;-71
2022/03/06 11:00:27;;;;;;;16.55;10.65;;;;;;;;;;5087479;28;20043;-72
2022/03/06 11:02:53;;;;;;;15.10;9.73;;;;;;;;;;5087329;28;20073;-70
2022/03/06 11:05:18;;;;;;;24.83;14.73;;;;;;;;;;5087991;28;20023;-69
2022/03/06 11:07:45;;;;;;;23.30;12.10;;;;;;;;;;5089043;28;20047;-70
2022/03/06 11:10:12;;;;;;;21.70;12.38;;;;;;;;;;5089639;28;20031;-72
2022/03/06 11:12:38;;;;;;;61.65;26.33;;;;;;;;;;5088510;28;20047;-70
2022/03/06 11:15:03;;;;;;;27.27;14.50;;;;;;;;;;5089304;28;20035;-70
2022/03/06 11:17:30;;;;;;;15.25;10.35;;;;;;;;;;5089187;28;20803;-70
2022/03/06 11:19:56;;;;;;;15.48;8.52;;;;;;;;;;5089185;28;20049;-71
2022/03/06 11:22:27;;;;;;;16.33;9.25;;;;;;;;;;5088948;28;20375;-71
2022/03/06 11:24:55;;;;;;;13.40;8.27;;;;;;;;;;5086593;28;20059;-72
2022/03/06 11:27:39;;;;;;;27.20;14.15;;;;;;;;;;5086565;28;20043;-72
2022/03/06 11:30:04;;;;;;;24.35;13.35;;;;;;;;;;5091206;28;20350;-69
2022/03/06 11:32:31;;;;;;;18.50;10.50;;;;;;;;;;5070753;28;20034;-69
2022/03/06 11:35:03;;;;;;;43.22;20.58;;;;;;;;;;5086745;28;20035;-71
2022/03/06 11:37:28;;;;;;;17.80;9.57;;;;;;;;;;5089216;28;20359;-70
2022/03/06 11:39:54;;;;;;;19.30;11.60;;;;;;;;;;5088268;28;20038;-70
2022/03/06 11:42:43;;;;;;;12.90;8.38;;;;;;;;;;5089954;28;20034;-70
2022/03/06 11:45:08;;;;;;;23.15;13.70;;;;;;;;;;5062031;28;20770;-69
2022/03/06 11:47:36;;;;;;;57.70;29.77;;;;;;;;;;5101461;28;20016;-70
2022/03/06 11:50:02;;;;;;;24.15;13.25;;;;;;;;;;5090953;28;20138;-70
2022/03/06 11:52:32;;;;;;;22.25;13.27;;;;;;;;;;5093351;28;20110;-68
2022/03/06 11:54:58;;;;;;;16.52;11.38;;;;;;;;;;5099491;28;20153;-69
2022/03/06 11:57:39;;;;;;;20.90;11.75;;;;;;;;;;5098181;28;20110;-70
2022/03/06 12:00:17;;;;;;;25.33;14.73;;;;;;;;;;5089250;28;21160;-66
2022/03/06 12:02:52;;;;;;;20.80;13.35;;;;;;;;;;5086710;28;20031;-65
2022/03/06 12:05:22;;;;;;;17.13;11.75;;;;;;;;;;5087859;28;20074;-68
2022/03/06 12:07:48;;;;;;;45.03;26.30;;;;;;;;;;5095828;28;20032;-68
2022/03/06 12:10:14;;;;;;;34.03;18.25;;;;;;;;;;5098001;28;20027;-68
2022/03/06 12:12:40;;;;;;;47.88;22.83;;;;;;;;;;5083877;28;20538;-68
2022/03/06 12:15:32;;;;;;;51.80;28.15;;;;;;;;;;5058043;28;20103;-68
2022/03/06 12:18:03;;;;;;;18.55;10.18;;;;;;;;;;5045236;28;20067;-69
2022/03/06 12:20:39;;;;;;;26.42;15.27;;;;;;;;;;5055291;28;20044;-70
2022/03/06 12:23:06;;;;;;;24.30;13.00;;;;;;;;;;5054520;28;20021;-70
2022/03/06 12:25:34;;;;;;;28.70;15.43;;;;;;;;;;5046794;28;20511;-69
2022/03/06 12:28:05;;;;;;;25.50;13.52;;;;;;;;;;5051238;28;20454;-70
2022/03/06 12:30:32;;;;;;;18.20;11.15;;;;;;;;;;5045958;28;20051;-71
2022/03/06 12:32:57;;;;;;;27.35;16.08;;;;;;;;;;5051886;28;20100;-70
2022/03/06 12:35:25;;;;;;;17.88;11.13;;;;;;;;;;5048903;28;20147;-70
2022/03/06 12:37:56;;;;;;;13.32;8.00;;;;;;;;;;5050732;28;20032;-69
2022/03/06 12:40:22;;;;;;;12.70;7.95;;;;;;;;;;5057042;28;20039;-70
2022/03/06 12:42:55;;;;;;;18.50;9.95;;;;;;;;;;5060884;28;20425;-70
2022/03/06 12:45:22;;;;;;;12.35;7.32;;;;;;;;;;5058211;28;20094;-69
2022/03/06 12:47:47;;;;;;;14.05;9.23;;;;;;;;;;5057809;28;20024;-69
2022/03/06 12:50:15;;;;;;;19.35;10.30;;;;;;;;;;5058885;28;20112;-69
2022/03/06 12:52:40;;;;;;;41.63;19.70;;;;;;;;;;5057025;28;20032;-70
2022/03/06 12:55:10;;;;;;;71.57;30.00;;;;;;;;;;5058082;28;20038;-69
2022/03/06 12:57:37;;;;;;;24.17;12.88;;;;;;;;;;5056264;28;20038;-69
2022/03/06 13:00:05;;;;;;;27.80;14.88;;;;;;;;;;5058297;28;20033;-68
2022/03/06 13:02:30;;;;;;;12.57;8.07;;;;;;;;;;5058148;28;20460;-70
2022/03/06 13:04:56;;;;;;;82.25;27.27;;;;;;;;;;5058233;28;20036;-68
2022/03/06 13:07:25;;;;;;;21.98;10.13;;;;;;;;;;5057621;28;20112;-68
2022/03/06 13:09:58;;;;;;;36.63;16.23;;;;;;;;;;5057604;28;20506;-69
2022/03/06 13:12:26;;;;;;;22.30;11.32;;;;;;;;;;5063613;28;20059;-67
2022/03/06 13:14:51;;;;;;;31.40;14.75;;;;;;;;;;5097639;28;20023;-67
2022/03/06 13:17:18;;;;;;;21.83;11.63;;;;;;;;;;5097998;28;20042;-66
2022/03/06 13:19:45;;;;;;;27.35;13.60;;;;;;;;;;5097360;28;20031;-68
2022/03/06 13:22:15;;;;;;;44.92;21.52;;;;;;;;;;5096651;28;20489;-65
2022/03/06 13:24:42;;;;;;;43.50;21.27;;;;;;;;;;5098205;28;20031;-68
2022/03/06 13:27:07;;;;;;;11.35;6.60;;;;;;;;;;5096960;28;20468;-68
2022/03/06 13:29:33;;;;;;;19.15;10.85;;;;;;;;;;5099173;28;20027;-66
2022/03/06 13:31:58;;;;;;;62.03;25.40;;;;;;;;;;5095468;28;20346;-67
2022/03/06 13:34:26;;;;;;;38.78;17.42;;;;;;;;;;5096316;28;20027;-66
2022/03/06 13:36:51;;;;;;;21.10;10.90;;;;;;;;;;5097862;28;20029;-71
2022/03/06 13:39:17;;;;;;;45.20;18.42;;;;;;;;;;5097594;28;20031;-66
2022/03/06 13:41:52;;;;;;;17.13;10.23;;;;;;;;;;5097480;28;20020;-69
2022/03/06 13:44:18;;;;;;;32.25;14.20;;;;;;;;;;5097379;28;20038;-68
2022/03/06 13:46:43;;;;;;;41.92;19.30;;;;;;;;;;5099175;28;20023;-66
2022/03/06 13:49:09;;;;;;;22.63;10.77;;;;;;;;;;5080664;28;20016;-66
2022/03/06 13:51:35;;;;;;;15.55;8.20;;;;;;;;;;5096860;28;20119;-65
2022/03/06 13:54:02;;;;;;;11.38;8.30;;;;;;;;;;5098606;28;20080;-66
2022/03/06 13:56:31;;;;;;;21.17;10.40;;;;;;;;;;5100786;28;20027;-65
2022/03/06 13:58:57;;;;;;;52.85;22.27;;;;;;;;;;5096786;28;20098;-65
2022/03/06 14:01:24;;;;;;;18.63;9.02;;;;;;;;;;5096253;28;20102;-65
2022/03/06 14:03:56;;;;;;;12.00;7.53;;;;;;;;;;5097915;28;20225;-65
2022/03/06 14:06:31;;;;;;;18.30;9.35;;;;;;;;;;5099470;28;20030;-66
2022/03/06 14:08:56;;;;;;;15.50;8.55;;;;;;;;;;5099905;28;20354;-65
2022/03/06 14:11:23;;;;;;;14.75;8.38;;;;;;;;;;5098740;28;20437;-64
2022/03/06 14:13:52;;;;;;;17.98;9.52;;;;;;;;;;5098387;28;20053;-66
2022/03/06 14:16:17;;;;;;;94.03;37.28;;;;;;;;;;5097012;28;20024;-68
2022/03/06 14:18:47;;;;;;;37.78;19.67;;;;;;;;;;5080113;28;20030;-66